sensor_id;sensor_type;location;lat;lon;timestamp;P1;durP1;ratioP1;P2;durP2;ratioP2
79464;SDS011;68932;47.410;8.232;2023-11-22T00:01:34;4.60;;;2.60;;
79464;SDS011;68932;47.410;8.232;2023-11-22T00:04:03;4.70;;;3.00;;
79464;SDS011;68932;47.410;8.232;2023-11-22T00:06:32;3.30;;;2.80;;
79464;SDS011;68932;47.410;8.232;2023-11-22T00:09:00;3.60;;;2.70;;
79464;SDS011;68932;47.410;8.232;2023-11-22T00:11:28;4.00;;;2.30;;
79464;SDS011;68932;47.410;8.232;2023-11-22T00:13:56;4.50;;;3.10;;
79464;SDS011;68932;47.410;8.232;2023-11-22T00:16:25;3.30;;;2.20;;
79464;SDS011;68932;47.410;8.232;2023-11-22T00:18:53;3.90;;;3.00;;
79464;SDS011;68932;47.410;8.232;2023-11-22T00:21:21;3.30;;;2.80;;
79464;SDS011;68932;47.410;8.232;2023-11-22T00:23:49;4.00;;;2.50;;
79464;SDS011;68932;47.410;8.232;2023-11-22T00:26:17;3.40;;;3.00;;
79464;SDS011;68932;47.410;8.232;2023-11-22T00:28:46;4.20;;;2.90;;
79464;SDS011;68932;47.410;8.232;2023-11-22T00:31:14;3.90;;;2.70;;
79464;SDS011;68932;47.410;8.232;2023-11-22T00:33:42;3.70;;;2.50;;
79464;SDS011;68932;47.410;8.232;2023-11-22T00:36:11;3.10;;;2.10;;
79464;SDS011;68932;47.410;8.232;2023-11-22T00:38:39;4.50;;;2.90;;
79464;SDS011;68932;47.410;8.232;2023-11-22T00:41:07;4.10;;;2.80;;
79464;SDS011;68932;47.410;8.232;2023-11-22T00:43:35;3.90;;;2.80;;
79464;SDS011;68932;47.410;8.232;2023-11-22T00:46:04;4.20;;;3.00;;
79464;SDS011;68932;47.410;8.232;2023-11-22T00:48:32;5.70;;;2.80;;
79464;SDS011;68932;47.410;8.232;2023-11-22T00:51:00;4.10;;;3.40;;
79464;SDS011;68932;47.410;8.232;2023-11-22T00:53:28;4.90;;;3.60;;
79464;SDS011;68932;47.410;8.232;2023-11-22T00:55:57;5.20;;;2.90;;
79464;SDS011;68932;47.410;8.232;2023-11-22T00:58:25;5.40;;;2.70;;
79464;SDS011;68932;47.410;8.232;2023-11-22T01:00:53;5.60;;;3.30;;
79464;SDS011;68932;47.410;8.232;2023-11-22T01:03:21;5.20;;;3.50;;
79464;SDS011;68932;47.410;8.232;2023-11-22T01:05:50;3.90;;;3.20;;
79464;SDS011;68932;47.410;8.232;2023-11-22T01:08:18;4.20;;;3.00;;
79464;SDS011;68932;47.410;8.232;2023-11-22T01:10:46;5.10;;;3.60;;
79464;SDS011;68932;47.410;8.232;2023-11-22T01:13:14;4.10;;;3.00;;
79464;SDS011;68932;47.410;8.232;2023-11-22T01:15:42;4.60;;;3.30;;
79464;SDS011;68932;47.410;8.232;2023-11-22T01:18:11;4.00;;;3.30;;
79464;SDS011;68932;47.410;8.232;2023-11-22T01:20:39;4.20;;;3.20;;
79464;SDS011;68932;47.410;8.232;2023-11-22T01:23:07;4.80;;;4.30;;
79464;SDS011;68932;47.410;8.232;2023-11-22T01:25:36;6.80;;;3.60;;
79464;SDS011;68932;47.410;8.232;2023-11-22T01:28:04;4.50;;;3.80;;
79464;SDS011;68932;47.410;8.232;2023-11-22T01:30:32;6.30;;;4.20;;
79464;SDS011;68932;47.410;8.232;2023-11-22T01:33:00;6.50;;;4.00;;
79464;SDS011;68932;47.410;8.232;2023-11-22T01:35:29;4.20;;;3.80;;
79464;SDS011;68932;47.410;8.232;2023-11-22T01:37:57;7.80;;;4.50;;
79464;SDS011;68932;47.410;8.232;2023-11-22T01:40:25;5.90;;;4.10;;
79464;SDS011;68932;47.410;8.232;2023-11-22T01:42:53;6.80;;;4.40;;
79464;SDS011;68932;47.410;8.232;2023-11-22T01:45:22;6.30;;;4.90;;
79464;SDS011;68932;47.410;8.232;2023-11-22T01:47:50;7.10;;;4.40;;
79464;SDS011;68932;47.410;8.232;2023-11-22T01:50:19;7.20;;;4.00;;
79464;SDS011;68932;47.410;8.232;2023-11-22T01:52:48;6.10;;;3.90;;
79464;SDS011;68932;47.410;8.232;2023-11-22T01:55:16;6.60;;;4.40;;
79464;SDS011;68932;47.410;8.232;2023-11-22T01:57:45;5.60;;;4.40;;
79464;SDS011;68932;47.410;8.232;2023-11-22T02:00:14;6.40;;;4.40;;
79464;SDS011;68932;47.410;8.232;2023-11-22T02:02:43;6.00;;;4.40;;
79464;SDS011;68932;47.410;8.232;2023-11-22T02:05:11;6.20;;;4.30;;
79464;SDS011;68932;47.410;8.232;2023-11-22T02:07:40;4.80;;;4.10;;
79464;SDS011;68932;47.410;8.232;2023-11-22T02:10:09;7.00;;;4.40;;
79464;SDS011;68932;47.410;8.232;2023-11-22T02:12:37;6.00;;;3.60;;
79464;SDS011;68932;47.410;8.232;2023-11-22T02:15:06;5.00;;;3.60;;
79464;SDS011;68932;47.410;8.232;2023-11-22T02:17:36;4.90;;;3.60;;
79464;SDS011;68932;47.410;8.232;2023-11-22T02:20:05;5.00;;;3.90;;
79464;SDS011;68932;47.410;8.232;2023-11-22T02:22:34;5.30;;;3.60;;
79464;SDS011;68932;47.410;8.232;2023-11-22T02:25:10;5.60;;;4.80;;
79464;SDS011;68932;47.410;8.232;2023-11-22T02:27:39;5.60;;;3.70;;
79464;SDS011;68932;47.410;8.232;2023-11-22T02:30:08;6.50;;;4.50;;
79464;SDS011;68932;47.410;8.232;2023-11-22T02:32:37;5.10;;;4.00;;
79464;SDS011;68932;47.410;8.232;2023-11-22T02:35:06;6.60;;;3.90;;
79464;SDS011;68932;47.410;8.232;2023-11-22T02:37:35;6.80;;;4.10;;
79464;SDS011;68932;47.410;8.232;2023-11-22T02:40:05;6.80;;;4.90;;
79464;SDS011;68932;47.410;8.232;2023-11-22T02:42:43;5.80;;;4.40;;
79464;SDS011;68932;47.410;8.232;2023-11-22T02:45:12;7.50;;;4.80;;
79464;SDS011;68932;47.410;8.232;2023-11-22T02:47:40;7.70;;;4.80;;
79464;SDS011;68932;47.410;8.232;2023-11-22T02:50:09;5.80;;;4.10;;
79464;SDS011;68932;47.410;8.232;2023-11-22T02:52:37;5.00;;;3.60;;
79464;SDS011;68932;47.410;8.232;2023-11-22T02:55:07;8.00;;;3.30;;
79464;SDS011;68932;47.410;8.232;2023-11-22T02:57:36;7.20;;;4.30;;
79464;SDS011;68932;47.410;8.232;2023-11-22T03:00:05;5.70;;;4.00;;
79464;SDS011;68932;47.410;8.232;2023-11-22T03:02:36;4.80;;;3.80;;
79464;SDS011;68932;47.410;8.232;2023-11-22T03:05:05;6.50;;;3.70;;
79464;SDS011;68932;47.410;8.232;2023-11-22T03:07:34;6.90;;;3.40;;
79464;SDS011;68932;47.410;8.232;2023-11-22T03:10:03;5.30;;;3.70;;
79464;SDS011;68932;47.410;8.232;2023-11-22T03:12:33;7.40;;;3.80;;
79464;SDS011;68932;47.410;8.232;2023-11-22T03:15:02;8.50;;;5.00;;
79464;SDS011;68932;47.410;8.232;2023-11-22T03:17:31;7.50;;;4.50;;
79464;SDS011;68932;47.410;8.232;2023-11-22T03:19:59;8.30;;;4.40;;
79464;SDS011;68932;47.410;8.232;2023-11-22T03:22:28;6.30;;;4.10;;
79464;SDS011;68932;47.410;8.232;2023-11-22T03:24:57;7.50;;;4.80;;
79464;SDS011;68932;47.410;8.232;2023-11-22T03:27:25;5.70;;;4.30;;
79464;SDS011;68932;47.410;8.232;2023-11-22T03:29:53;6.80;;;3.80;;
79464;SDS011;68932;47.410;8.232;2023-11-22T03:32:22;5.30;;;4.10;;
79464;SDS011;68932;47.410;8.232;2023-11-22T03:34:50;6.20;;;4.00;;
79464;SDS011;68932;47.410;8.232;2023-11-22T03:37:18;6.30;;;3.90;;
79464;SDS011;68932;47.410;8.232;2023-11-22T03:39:46;5.00;;;3.80;;
79464;SDS011;68932;47.410;8.232;2023-11-22T03:42:15;5.50;;;3.80;;
79464;SDS011;68932;47.410;8.232;2023-11-22T03:44:43;6.10;;;3.80;;
79464;SDS011;68932;47.410;8.232;2023-11-22T03:47:13;5.70;;;3.60;;
79464;SDS011;68932;47.410;8.232;2023-11-22T03:49:42;6.20;;;3.60;;
79464;SDS011;68932;47.410;8.232;2023-11-22T03:52:11;5.60;;;3.90;;
79464;SDS011;68932;47.410;8.232;2023-11-22T03:54:39;4.40;;;3.30;;
79464;SDS011;68932;47.410;8.232;2023-11-22T03:57:08;5.20;;;3.70;;
79464;SDS011;68932;47.410;8.232;2023-11-22T03:59:36;4.20;;;3.40;;
79464;SDS011;68932;47.410;8.232;2023-11-22T04:02:07;8.00;;;4.00;;
79464;SDS011;68932;47.410;8.232;2023-11-22T04:04:36;6.90;;;3.70;;
79464;SDS011;68932;47.410;8.232;2023-11-22T04:07:04;6.20;;;4.60;;
79464;SDS011;68932;47.410;8.232;2023-11-22T04:09:32;7.00;;;4.40;;
79464;SDS011;68932;47.410;8.232;2023-11-22T04:12:01;5.30;;;3.70;;
79464;SDS011;68932;47.410;8.232;2023-11-22T04:14:29;4.90;;;3.50;;
79464;SDS011;68932;47.410;8.232;2023-11-22T04:16:57;19.80;;;4.00;;
79464;SDS011;68932;47.410;8.232;2023-11-22T04:19:26;6.30;;;3.80;;
79464;SDS011;68932;47.410;8.232;2023-11-22T04:21:54;4.80;;;3.30;;
79464;SDS011;68932;47.410;8.232;2023-11-22T04:24:22;4.60;;;3.10;;
79464;SDS011;68932;47.410;8.232;2023-11-22T04:26:50;4.50;;;3.60;;
79464;SDS011;68932;47.410;8.232;2023-11-22T04:29:18;6.20;;;3.30;;
79464;SDS011;68932;47.410;8.232;2023-11-22T04:31:47;6.90;;;3.20;;
79464;SDS011;68932;47.410;8.232;2023-11-22T04:34:15;6.50;;;3.60;;
79464;SDS011;68932;47.410;8.232;2023-11-22T04:36:43;4.40;;;3.50;;
79464;SDS011;68932;47.410;8.232;2023-11-22T04:39:12;6.90;;;3.50;;
79464;SDS011;68932;47.410;8.232;2023-11-22T04:41:40;4.50;;;3.60;;
79464;SDS011;68932;47.410;8.232;2023-11-22T04:44:08;6.00;;;3.90;;
79464;SDS011;68932;47.410;8.232;2023-11-22T04:46:37;6.40;;;3.40;;
79464;SDS011;68932;47.410;8.232;2023-11-22T04:49:05;6.70;;;4.30;;
79464;SDS011;68932;47.410;8.232;2023-11-22T04:51:33;8.90;;;3.90;;
79464;SDS011;68932;47.410;8.232;2023-11-22T04:54:01;5.40;;;3.30;;
79464;SDS011;68932;47.410;8.232;2023-11-22T04:56:30;5.50;;;3.00;;
79464;SDS011;68932;47.410;8.232;2023-11-22T04:58:58;7.20;;;3.70;;
79464;SDS011;68932;47.410;8.232;2023-11-22T05:01:32;6.40;;;2.90;;
79464;SDS011;68932;47.410;8.232;2023-11-22T05:04:00;4.80;;;3.10;;
79464;SDS011;68932;47.410;8.232;2023-11-22T05:06:29;4.70;;;3.20;;
79464;SDS011;68932;47.410;8.232;2023-11-22T05:08:57;5.00;;;3.40;;
79464;SDS011;68932;47.410;8.232;2023-11-22T05:11:25;4.60;;;4.10;;
79464;SDS011;68932;47.410;8.232;2023-11-22T05:13:53;5.90;;;3.40;;
79464;SDS011;68932;47.410;8.232;2023-11-22T05:16:22;5.20;;;3.30;;
79464;SDS011;68932;47.410;8.232;2023-11-22T05:18:50;4.00;;;2.70;;
79464;SDS011;68932;47.410;8.232;2023-11-22T05:21:18;4.50;;;2.70;;
79464;SDS011;68932;47.410;8.232;2023-11-22T05:23:47;4.00;;;3.10;;
79464;SDS011;68932;47.410;8.232;2023-11-22T05:26:15;4.30;;;2.90;;
79464;SDS011;68932;47.410;8.232;2023-11-22T05:28:43;4.90;;;2.80;;
79464;SDS011;68932;47.410;8.232;2023-11-22T05:31:12;6.80;;;3.20;;
79464;SDS011;68932;47.410;8.232;2023-11-22T05:33:40;4.70;;;3.00;;
79464;SDS011;68932;47.410;8.232;2023-11-22T05:36:08;5.20;;;4.00;;
79464;SDS011;68932;47.410;8.232;2023-11-22T05:38:37;6.60;;;2.90;;
79464;SDS011;68932;47.410;8.232;2023-11-22T05:41:05;4.90;;;3.40;;
79464;SDS011;68932;47.410;8.232;2023-11-22T05:43:33;4.40;;;3.20;;
79464;SDS011;68932;47.410;8.232;2023-11-22T05:46:02;4.90;;;3.70;;
79464;SDS011;68932;47.410;8.232;2023-11-22T05:48:30;5.20;;;2.80;;
79464;SDS011;68932;47.410;8.232;2023-11-22T05:50:58;5.60;;;3.10;;
79464;SDS011;68932;47.410;8.232;2023-11-22T05:53:26;5.80;;;3.00;;
79464;SDS011;68932;47.410;8.232;2023-11-22T05:55:55;5.60;;;2.90;;
79464;SDS011;68932;47.410;8.232;2023-11-22T05:58:23;5.90;;;3.80;;
79464;SDS011;68932;47.410;8.232;2023-11-22T06:00:51;5.90;;;3.50;;
79464;SDS011;68932;47.410;8.232;2023-11-22T06:03:19;6.50;;;3.20;;
79464;SDS011;68932;47.410;8.232;2023-11-22T06:05:48;5.80;;;3.20;;
79464;SDS011;68932;47.410;8.232;2023-11-22T06:08:16;5.00;;;3.10;;
79464;SDS011;68932;47.410;8.232;2023-11-22T06:10:44;5.50;;;3.20;;
79464;SDS011;68932;47.410;8.232;2023-11-22T06:13:12;6.20;;;3.10;;
79464;SDS011;68932;47.410;8.232;2023-11-22T06:15:41;6.60;;;3.30;;
79464;SDS011;68932;47.410;8.232;2023-11-22T06:18:09;3.90;;;2.90;;
79464;SDS011;68932;47.410;8.232;2023-11-22T06:20:37;4.30;;;2.90;;
79464;SDS011;68932;47.410;8.232;2023-11-22T06:23:05;4.60;;;2.90;;
79464;SDS011;68932;47.410;8.232;2023-11-22T06:25:34;4.30;;;2.50;;
79464;SDS011;68932;47.410;8.232;2023-11-22T06:28:02;4.30;;;3.00;;
79464;SDS011;68932;47.410;8.232;2023-11-22T06:30:30;3.20;;;2.30;;
79464;SDS011;68932;47.410;8.232;2023-11-22T06:32:59;3.20;;;2.10;;
79464;SDS011;68932;47.410;8.232;2023-11-22T06:35:27;4.50;;;2.60;;
79464;SDS011;68932;47.410;8.232;2023-11-22T06:37:56;3.70;;;2.50;;
79464;SDS011;68932;47.410;8.232;2023-11-22T06:40:24;2.30;;;1.80;;
79464;SDS011;68932;47.410;8.232;2023-11-22T06:42:52;2.10;;;1.90;;
79464;SDS011;68932;47.410;8.232;2023-11-22T06:45:20;2.60;;;2.00;;
79464;SDS011;68932;47.410;8.232;2023-11-22T06:47:49;3.20;;;2.40;;
79464;SDS011;68932;47.410;8.232;2023-11-22T06:50:17;2.40;;;1.60;;
79464;SDS011;68932;47.410;8.232;2023-11-22T06:52:45;2.30;;;1.50;;
79464;SDS011;68932;47.410;8.232;2023-11-22T06:55:14;3.30;;;1.60;;
79464;SDS011;68932;47.410;8.232;2023-11-22T06:57:42;2.20;;;1.60;;
79464;SDS011;68932;47.410;8.232;2023-11-22T07:00:12;2.50;;;1.50;;
79464;SDS011;68932;47.410;8.232;2023-11-22T07:02:41;1.90;;;1.20;;
79464;SDS011;68932;47.410;8.232;2023-11-22T07:05:10;3.30;;;1.50;;
79464;SDS011;68932;47.410;8.232;2023-11-22T07:07:38;3.10;;;1.70;;
79464;SDS011;68932;47.410;8.232;2023-11-22T07:10:07;2.00;;;1.50;;
79464;SDS011;68932;47.410;8.232;2023-11-22T07:12:36;2.50;;;1.70;;
79464;SDS011;68932;47.410;8.232;2023-11-22T07:15:05;3.30;;;1.90;;
79464;SDS011;68932;47.410;8.232;2023-11-22T07:17:34;2.80;;;1.90;;
79464;SDS011;68932;47.410;8.232;2023-11-22T07:20:03;2.60;;;1.80;;
79464;SDS011;68932;47.410;8.232;2023-11-22T07:22:32;2.90;;;1.50;;
79464;SDS011;68932;47.410;8.232;2023-11-22T07:25:01;3.20;;;2.30;;
79464;SDS011;68932;47.410;8.232;2023-11-22T07:27:30;3.00;;;2.70;;
79464;SDS011;68932;47.410;8.232;2023-11-22T07:29:59;2.40;;;1.80;;
79464;SDS011;68932;47.410;8.232;2023-11-22T07:32:27;2.80;;;2.00;;
79464;SDS011;68932;47.410;8.232;2023-11-22T07:34:55;2.60;;;1.70;;
79464;SDS011;68932;47.410;8.232;2023-11-22T07:37:23;2.70;;;2.20;;
79464;SDS011;68932;47.410;8.232;2023-11-22T07:39:51;2.70;;;2.10;;
79464;SDS011;68932;47.410;8.232;2023-11-22T07:42:20;2.60;;;1.80;;
79464;SDS011;68932;47.410;8.232;2023-11-22T07:44:48;2.60;;;1.80;;
79464;SDS011;68932;47.410;8.232;2023-11-22T07:47:16;2.50;;;2.30;;
79464;SDS011;68932;47.410;8.232;2023-11-22T07:49:44;2.30;;;1.90;;
79464;SDS011;68932;47.410;8.232;2023-11-22T07:52:13;2.30;;;2.10;;
79464;SDS011;68932;47.410;8.232;2023-11-22T07:54:41;3.10;;;2.00;;
79464;SDS011;68932;47.410;8.232;2023-11-22T07:57:09;2.60;;;1.80;;
79464;SDS011;68932;47.410;8.232;2023-11-22T07:59:37;2.10;;;1.40;;
79464;SDS011;68932;47.410;8.232;2023-11-22T08:02:06;2.10;;;1.50;;
79464;SDS011;68932;47.410;8.232;2023-11-22T08:04:34;2.70;;;1.60;;
79464;SDS011;68932;47.410;8.232;2023-11-22T08:07:03;1.80;;;1.60;;
79464;SDS011;68932;47.410;8.232;2023-11-22T08:09:31;2.10;;;1.40;;
79464;SDS011;68932;47.410;8.232;2023-11-22T08:11:59;2.00;;;1.50;;
79464;SDS011;68932;47.410;8.232;2023-11-22T08:14:28;1.70;;;1.10;;
79464;SDS011;68932;47.410;8.232;2023-11-22T08:16:56;2.20;;;1.70;;
79464;SDS011;68932;47.410;8.232;2023-11-22T08:19:24;1.60;;;1.30;;
79464;SDS011;68932;47.410;8.232;2023-11-22T08:21:52;2.50;;;1.40;;
79464;SDS011;68932;47.410;8.232;2023-11-22T08:24:21;2.10;;;1.50;;
79464;SDS011;68932;47.410;8.232;2023-11-22T08:26:49;1.90;;;1.40;;
79464;SDS011;68932;47.410;8.232;2023-11-22T08:29:17;1.90;;;1.30;;
79464;SDS011;68932;47.410;8.232;2023-11-22T08:31:45;3.10;;;1.20;;
79464;SDS011;68932;47.410;8.232;2023-11-22T08:34:14;1.60;;;1.30;;
79464;SDS011;68932;47.410;8.232;2023-11-22T08:36:42;1.60;;;1.40;;
79464;SDS011;68932;47.410;8.232;2023-11-22T08:39:10;2.50;;;2.30;;
79464;SDS011;68932;47.410;8.232;2023-11-22T08:41:39;3.60;;;1.60;;
79464;SDS011;68932;47.410;8.232;2023-11-22T08:44:07;2.20;;;1.50;;
79464;SDS011;68932;47.410;8.232;2023-11-22T08:46:35;2.10;;;1.90;;
79464;SDS011;68932;47.410;8.232;2023-11-22T08:49:03;2.00;;;1.60;;
79464;SDS011;68932;47.410;8.232;2023-11-22T08:51:32;2.70;;;2.20;;
79464;SDS011;68932;47.410;8.232;2023-11-22T08:54:00;2.50;;;2.00;;
79464;SDS011;68932;47.410;8.232;2023-11-22T08:56:29;2.20;;;1.90;;
79464;SDS011;68932;47.410;8.232;2023-11-22T08:58:57;2.20;;;1.60;;
79464;SDS011;68932;47.410;8.232;2023-11-22T09:01:25;3.20;;;2.00;;
79464;SDS011;68932;47.410;8.232;2023-11-22T09:03:54;2.20;;;1.90;;
79464;SDS011;68932;47.410;8.232;2023-11-22T09:06:22;2.40;;;2.00;;
79464;SDS011;68932;47.410;8.232;2023-11-22T09:08:50;2.30;;;1.60;;
79464;SDS011;68932;47.410;8.232;2023-11-22T09:11:18;2.10;;;1.70;;
79464;SDS011;68932;47.410;8.232;2023-11-22T09:13:46;2.20;;;1.70;;
79464;SDS011;68932;47.410;8.232;2023-11-22T09:16:15;2.00;;;1.80;;
79464;SDS011;68932;47.410;8.232;2023-11-22T09:18:43;2.80;;;2.00;;
79464;SDS011;68932;47.410;8.232;2023-11-22T09:21:11;2.70;;;2.30;;
79464;SDS011;68932;47.410;8.232;2023-11-22T09:23:40;3.30;;;1.80;;
79464;SDS011;68932;47.410;8.232;2023-11-22T09:26:08;2.60;;;2.40;;
79464;SDS011;68932;47.410;8.232;2023-11-22T09:28:36;3.00;;;1.90;;
79464;SDS011;68932;47.410;8.232;2023-11-22T09:31:05;3.40;;;2.20;;
79464;SDS011;68932;47.410;8.232;2023-11-22T09:33:34;2.90;;;2.00;;
79464;SDS011;68932;47.410;8.232;2023-11-22T09:36:02;2.30;;;2.00;;
79464;SDS011;68932;47.410;8.232;2023-11-22T09:38:31;2.40;;;1.90;;
79464;SDS011;68932;47.410;8.232;2023-11-22T09:40:59;2.60;;;2.00;;
79464;SDS011;68932;47.410;8.232;2023-11-22T09:43:28;2.60;;;1.80;;
79464;SDS011;68932;47.410;8.232;2023-11-22T09:45:56;2.20;;;1.80;;
79464;SDS011;68932;47.410;8.232;2023-11-22T09:48:24;2.40;;;2.20;;
79464;SDS011;68932;47.410;8.232;2023-11-22T09:50:54;2.60;;;1.80;;
79464;SDS011;68932;47.410;8.232;2023-11-22T09:53:30;2.70;;;2.10;;
79464;SDS011;68932;47.410;8.232;2023-11-22T09:56:00;3.40;;;2.70;;
79464;SDS011;68932;47.410;8.232;2023-11-22T09:58:30;3.20;;;2.90;;
79464;SDS011;68932;47.410;8.232;2023-11-22T10:01:00;4.00;;;3.10;;
79464;SDS011;68932;47.410;8.232;2023-11-22T10:03:29;2.90;;;2.30;;
79464;SDS011;68932;47.410;8.232;2023-11-22T10:05:57;3.20;;;2.50;;
79464;SDS011;68932;47.410;8.232;2023-11-22T10:08:26;3.10;;;2.30;;
79464;SDS011;68932;47.410;8.232;2023-11-22T10:10:54;4.10;;;3.40;;
79464;SDS011;68932;47.410;8.232;2023-11-22T10:13:24;3.60;;;2.90;;
79464;SDS011;68932;47.410;8.232;2023-11-22T10:15:53;3.60;;;2.50;;
79464;SDS011;68932;47.410;8.232;2023-11-22T10:18:22;3.10;;;2.20;;
79464;SDS011;68932;47.410;8.232;2023-11-22T10:20:50;3.10;;;2.80;;
79464;SDS011;68932;47.410;8.232;2023-11-22T10:23:19;2.70;;;2.50;;
79464;SDS011;68932;47.410;8.232;2023-11-22T10:25:48;3.00;;;2.30;;
79464;SDS011;68932;47.410;8.232;2023-11-22T10:28:18;3.60;;;2.40;;
79464;SDS011;68932;47.410;8.232;2023-11-22T10:30:47;3.10;;;2.60;;
79464;SDS011;68932;47.410;8.232;2023-11-22T10:33:17;3.20;;;2.30;;
79464;SDS011;68932;47.410;8.232;2023-11-22T10:35:46;2.40;;;1.70;;
79464;SDS011;68932;47.410;8.232;2023-11-22T10:38:16;3.10;;;2.30;;
79464;SDS011;68932;47.410;8.232;2023-11-22T10:40:45;3.00;;;2.10;;
79464;SDS011;68932;47.410;8.232;2023-11-22T10:43:14;3.40;;;2.90;;
79464;SDS011;68932;47.410;8.232;2023-11-22T10:45:43;2.40;;;2.20;;
79464;SDS011;68932;47.410;8.232;2023-11-22T10:48:12;3.20;;;2.20;;
79464;SDS011;68932;47.410;8.232;2023-11-22T10:50:42;3.10;;;2.20;;
79464;SDS011;68932;47.410;8.232;2023-11-22T10:53:11;2.40;;;2.00;;
79464;SDS011;68932;47.410;8.232;2023-11-22T10:55:44;2.90;;;2.10;;
79464;SDS011;68932;47.410;8.232;2023-11-22T11:00:42;2.50;;;2.00;;
79464;SDS011;68932;47.410;8.232;2023-11-22T11:03:14;2.50;;;1.70;;
79464;SDS011;68932;47.410;8.232;2023-11-22T11:05:45;2.80;;;2.20;;
79464;SDS011;68932;47.410;8.232;2023-11-22T11:08:17;2.40;;;1.90;;
79464;SDS011;68932;47.410;8.232;2023-11-22T11:10:47;2.30;;;1.90;;
79464;SDS011;68932;47.410;8.232;2023-11-22T11:13:16;2.50;;;2.20;;
79464;SDS011;68932;47.410;8.232;2023-11-22T11:15:44;3.20;;;2.90;;
79464;SDS011;68932;47.410;8.232;2023-11-22T11:18:14;2.40;;;1.90;;
79464;SDS011;68932;47.410;8.232;2023-11-22T11:20:47;4.90;;;3.00;;
79464;SDS011;68932;47.410;8.232;2023-11-22T11:23:16;2.60;;;2.00;;
79464;SDS011;68932;47.410;8.232;2023-11-22T11:25:45;3.40;;;2.40;;
79464;SDS011;68932;47.410;8.232;2023-11-22T11:28:15;2.90;;;2.00;;
79464;SDS011;68932;47.410;8.232;2023-11-22T11:30:47;2.80;;;2.40;;
79464;SDS011;68932;47.410;8.232;2023-11-22T11:33:17;2.20;;;2.00;;
79464;SDS011;68932;47.410;8.232;2023-11-22T11:35:47;3.30;;;2.00;;
79464;SDS011;68932;47.410;8.232;2023-11-22T11:38:19;2.40;;;2.10;;
79464;SDS011;68932;47.410;8.232;2023-11-22T11:40:48;2.60;;;1.30;;
79464;SDS011;68932;47.410;8.232;2023-11-22T11:43:22;2.20;;;1.50;;
79464;SDS011;68932;47.410;8.232;2023-11-22T11:46:08;2.70;;;1.90;;
79464;SDS011;68932;47.410;8.232;2023-11-22T11:48:37;2.50;;;2.00;;
79464;SDS011;68932;47.410;8.232;2023-11-22T11:51:08;2.10;;;1.70;;
79464;SDS011;68932;47.410;8.232;2023-11-22T11:53:36;2.90;;;1.90;;
79464;SDS011;68932;47.410;8.232;2023-11-22T11:56:05;3.20;;;2.10;;
79464;SDS011;68932;47.410;8.232;2023-11-22T11:58:35;2.40;;;1.90;;
79464;SDS011;68932;47.410;8.232;2023-11-22T12:01:03;2.60;;;1.70;;
79464;SDS011;68932;47.410;8.232;2023-11-22T12:03:32;2.20;;;2.00;;
79464;SDS011;68932;47.410;8.232;2023-11-22T12:06:02;3.00;;;2.00;;
79464;SDS011;68932;47.410;8.232;2023-11-22T12:08:30;2.00;;;1.80;;
79464;SDS011;68932;47.410;8.232;2023-11-22T12:10:59;4.40;;;2.20;;
79464;SDS011;68932;47.410;8.232;2023-11-22T12:13:28;2.20;;;2.00;;
79464;SDS011;68932;47.410;8.232;2023-11-22T12:15:57;2.10;;;1.60;;
79464;SDS011;68932;47.410;8.232;2023-11-22T12:18:26;2.90;;;2.10;;
79464;SDS011;68932;47.410;8.232;2023-11-22T12:20:55;2.60;;;2.40;;
79464;SDS011;68932;47.410;8.232;2023-11-22T12:23:25;2.50;;;2.10;;
79464;SDS011;68932;47.410;8.232;2023-11-22T12:25:55;2.40;;;2.00;;
79464;SDS011;68932;47.410;8.232;2023-11-22T12:28:25;2.80;;;2.60;;
79464;SDS011;68932;47.410;8.232;2023-11-22T12:30:54;4.10;;;2.40;;
79464;SDS011;68932;47.410;8.232;2023-11-22T12:33:32;3.80;;;3.40;;
79464;SDS011;68932;47.410;8.232;2023-11-22T12:36:01;2.50;;;2.10;;
79464;SDS011;68932;47.410;8.232;2023-11-22T12:38:29;3.70;;;2.10;;
79464;SDS011;68932;47.410;8.232;2023-11-22T12:40:57;2.40;;;1.50;;
79464;SDS011;68932;47.410;8.232;2023-11-22T12:43:26;2.60;;;2.30;;
79464;SDS011;68932;47.410;8.232;2023-11-22T12:46:00;2.80;;;2.50;;
79464;SDS011;68932;47.410;8.232;2023-11-22T12:48:30;4.30;;;2.40;;
79464;SDS011;68932;47.410;8.232;2023-11-22T12:50:58;2.80;;;2.20;;
79464;SDS011;68932;47.410;8.232;2023-11-22T12:53:27;2.70;;;2.30;;
79464;SDS011;68932;47.410;8.232;2023-11-22T12:55:55;3.10;;;2.00;;
79464;SDS011;68932;47.410;8.232;2023-11-22T12:58:24;4.00;;;2.30;;
79464;SDS011;68932;47.410;8.232;2023-11-22T13:00:53;4.90;;;2.90;;
79464;SDS011;68932;47.410;8.232;2023-11-22T13:03:21;3.20;;;2.80;;
79464;SDS011;68932;47.410;8.232;2023-11-22T13:05:50;3.30;;;2.40;;
79464;SDS011;68932;47.410;8.232;2023-11-22T13:08:18;2.80;;;2.30;;
79464;SDS011;68932;47.410;8.232;2023-11-22T13:10:48;2.70;;;2.40;;
79464;SDS011;68932;47.410;8.232;2023-11-22T13:13:17;3.10;;;2.60;;
79464;SDS011;68932;47.410;8.232;2023-11-22T13:15:45;2.90;;;2.30;;
79464;SDS011;68932;47.410;8.232;2023-11-22T13:18:14;3.50;;;2.20;;
79464;SDS011;68932;47.410;8.232;2023-11-22T13:20:42;4.30;;;2.80;;
79464;SDS011;68932;47.410;8.232;2023-11-22T13:23:11;3.50;;;2.60;;
79464;SDS011;68932;47.410;8.232;2023-11-22T13:25:39;3.20;;;2.60;;
79464;SDS011;68932;47.410;8.232;2023-11-22T13:28:07;3.00;;;2.70;;
79464;SDS011;68932;47.410;8.232;2023-11-22T13:30:36;3.20;;;2.40;;
79464;SDS011;68932;47.410;8.232;2023-11-22T13:33:04;3.50;;;2.70;;
79464;SDS011;68932;47.410;8.232;2023-11-22T13:35:33;3.70;;;2.80;;
79464;SDS011;68932;47.410;8.232;2023-11-22T13:38:01;4.70;;;2.60;;
79464;SDS011;68932;47.410;8.232;2023-11-22T13:40:30;4.00;;;2.80;;
79464;SDS011;68932;47.410;8.232;2023-11-22T13:42:59;3.30;;;2.80;;
79464;SDS011;68932;47.410;8.232;2023-11-22T13:45:27;4.90;;;2.90;;
79464;SDS011;68932;47.410;8.232;2023-11-22T13:47:55;3.50;;;2.50;;
79464;SDS011;68932;47.410;8.232;2023-11-22T13:50:23;2.80;;;2.10;;
79464;SDS011;68932;47.410;8.232;2023-11-22T13:52:52;2.80;;;2.30;;
79464;SDS011;68932;47.410;8.232;2023-11-22T13:55:21;4.90;;;2.70;;
79464;SDS011;68932;47.410;8.232;2023-11-22T13:57:50;3.70;;;3.10;;
79464;SDS011;68932;47.410;8.232;2023-11-22T14:00:20;3.90;;;2.50;;
79464;SDS011;68932;47.410;8.232;2023-11-22T14:02:50;3.40;;;2.40;;
79464;SDS011;68932;47.410;8.232;2023-11-22T14:05:19;3.30;;;2.70;;
79464;SDS011;68932;47.410;8.232;2023-11-22T14:07:48;3.40;;;2.80;;
79464;SDS011;68932;47.410;8.232;2023-11-22T14:10:16;3.30;;;2.30;;
79464;SDS011;68932;47.410;8.232;2023-11-22T14:12:44;3.30;;;2.50;;
79464;SDS011;68932;47.410;8.232;2023-11-22T14:15:13;3.80;;;2.80;;
79464;SDS011;68932;47.410;8.232;2023-11-22T14:17:41;3.80;;;3.00;;
79464;SDS011;68932;47.410;8.232;2023-11-22T14:20:10;3.20;;;2.40;;
79464;SDS011;68932;47.410;8.232;2023-11-22T14:22:39;4.10;;;3.00;;
79464;SDS011;68932;47.410;8.232;2023-11-22T14:25:08;3.50;;;2.40;;
79464;SDS011;68932;47.410;8.232;2023-11-22T14:27:37;3.80;;;2.60;;
79464;SDS011;68932;47.410;8.232;2023-11-22T14:30:08;3.20;;;2.40;;
79464;SDS011;68932;47.410;8.232;2023-11-22T14:32:37;5.30;;;3.00;;
79464;SDS011;68932;47.410;8.232;2023-11-22T14:35:06;3.30;;;2.80;;
79464;SDS011;68932;47.410;8.232;2023-11-22T14:37:35;4.30;;;2.50;;
79464;SDS011;68932;47.410;8.232;2023-11-22T14:40:04;3.90;;;2.60;;
79464;SDS011;68932;47.410;8.232;2023-11-22T14:42:34;4.50;;;2.80;;
79464;SDS011;68932;47.410;8.232;2023-11-22T14:45:02;3.70;;;2.60;;
79464;SDS011;68932;47.410;8.232;2023-11-22T14:47:31;4.30;;;2.60;;
79464;SDS011;68932;47.410;8.232;2023-11-22T14:50:00;3.90;;;2.70;;
79464;SDS011;68932;47.410;8.232;2023-11-22T14:52:28;3.80;;;2.80;;
79464;SDS011;68932;47.410;8.232;2023-11-22T14:54:56;4.00;;;2.50;;
79464;SDS011;68932;47.410;8.232;2023-11-22T14:57:25;3.40;;;2.60;;
79464;SDS011;68932;47.410;8.232;2023-11-22T14:59:53;4.40;;;2.60;;